Time;durP1;ratioP1;P1;durP2;ratioP2;P2;SDS_P1;SDS_P2;PMS_P1;PMS_P2;Temp;Humidity;BMP_temperature;BMP_pressure;BME280_temperature;BME280_humidity;BME280_pressure;Samples;Min_cycle;Max_cycle;Signal;HPM_P1;HPM_P2
2022/09/20 00:00:33;;;;;;;4.60;3.70;;;;;;;;;;4994437;28;20805;-76
2022/09/20 00:03:00;;;;;;;4.87;3.63;;;;;;;;;;4994195;28;20483;-76
2022/09/20 00:05:27;;;;;;;3.30;3.10;;;;;;;;;;4994267;28;20452;-75
2022/09/20 00:07:54;;;;;;;5.47;4.27;;;;;;;;;;4994392;28;20463;-75
2022/09/20 00:10:23;;;;;;;4.20;3.80;;;;;;;;;;4994466;28;20455;-75
2022/09/20 00:12:50;;;;;;;5.27;3.80;;;;;;;;;;4994398;28;20532;-76
2022/09/20 00:15:17;;;;;;;3.27;3.07;;;;;;;;;;4994847;28;20451;-76
2022/09/20 00:17:45;;;;;;;3.77;3.43;;;;;;;;;;4997201;28;20794;-76
2022/09/20 00:20:12;;;;;;;5.17;3.60;;;;;;;;;;5000357;28;20447;-75
2022/09/20 00:22:39;;;;;;;7.93;4.30;;;;;;;;;;5000210;28;21066;-76
2022/09/20 00:25:07;;;;;;;3.57;3.07;;;;;;;;;;4998021;28;20463;-76
2022/09/20 00:27:34;;;;;;;6.00;3.20;;;;;;;;;;4993805;28;20819;-75
2022/09/20 00:30:01;;;;;;;3.67;3.10;;;;;;;;;;4994327;28;20436;-75
2022/09/20 00:32:28;;;;;;;3.80;3.50;;;;;;;;;;4994621;28;20451;-76
2022/09/20 00:35:09;;;;;;;3.93;3.40;;;;;;;;;;4994317;28;20969;-75
2022/09/20 00:37:36;;;;;;;4.20;3.23;;;;;;;;;;4995655;28;20431;-75
2022/09/20 00:40:05;;;;;;;4.10;3.77;;;;;;;;;;5008386;28;20444;-74
2022/09/20 00:42:32;;;;;;;5.00;3.53;;;;;;;;;;5007356;28;20544;-76
2022/09/20 00:45:00;;;;;;;3.90;3.60;;;;;;;;;;5006097;28;20526;-75
2022/09/20 00:47:45;;;;;;;3.87;3.57;;;;;;;;;;5004256;28;20444;-76
2022/09/20 00:50:19;;;;;;;4.13;3.63;;;;;;;;;;5003338;28;20432;-75
2022/09/20 00:52:47;;;;;;;4.00;3.57;;;;;;;;;;4995680;28;20425;-76
2022/09/20 00:55:15;;;;;;;6.43;3.60;;;;;;;;;;4995017;28;20462;-75
2022/09/20 00:57:42;;;;;;;4.27;3.83;;;;;;;;;;4994899;28;20448;-76
2022/09/20 01:00:10;;;;;;;3.70;3.40;;;;;;;;;;5000340;28;20452;-76
2022/09/20 01:02:39;;;;;;;4.20;3.83;;;;;;;;;;5002874;28;20487;-75
2022/09/20 01:05:08;;;;;;;3.70;3.40;;;;;;;;;;5003719;28;20487;-76
2022/09/20 01:07:36;;;;;;;3.70;3.23;;;;;;;;;;4998831;28;20689;-76
2022/09/20 01:10:05;;;;;;;3.80;3.47;;;;;;;;;;4998803;28;20452;-75
2022/09/20 01:12:34;;;;;;;3.80;3.60;;;;;;;;;;5004970;28;20459;-75
2022/09/20 01:15:03;;;;;;;3.97;3.60;;;;;;;;;;4998897;28;20448;-74
2022/09/20 01:17:32;;;;;;;4.73;3.40;;;;;;;;;;4997051;28;20499;-75
2022/09/20 01:20:08;;;;;;;4.47;3.10;;;;;;;;;;4993627;28;20448;-77
2022/09/20 01:22:38;;;;;;;3.53;3.13;;;;;;;;;;4993164;28;20551;-76
2022/09/20 01:25:10;;;;;;;5.90;3.57;;;;;;;;;;4993279;28;20437;-75
2022/09/20 01:27:42;;;;;;;3.50;3.20;;;;;;;;;;4993176;28;20440;-76
2022/09/20 01:30:12;;;;;;;3.97;3.67;;;;;;;;;;4992905;28;20502;-76
2022/09/20 01:32:46;;;;;;;4.70;3.60;;;;;;;;;;4992929;28;20437;-75
2022/09/20 01:35:13;;;;;;;4.93;3.77;;;;;;;;;;4993088;28;20441;-76
2022/09/20 01:37:47;;;;;;;4.20;3.33;;;;;;;;;;4992397;28;20543;-76
2022/09/20 01:40:19;;;;;;;4.07;3.50;;;;;;;;;;4993041;28;20432;-76
2022/09/20 01:42:52;;;;;;;5.47;3.47;;;;;;;;;;4992462;28;20476;-76
2022/09/20 01:45:23;;;;;;;4.90;3.00;;;;;;;;;;4992687;28;20499;-76
2022/09/20 01:47:54;;;;;;;4.27;3.90;;;;;;;;;;4992576;28;20472;-75
2022/09/20 01:50:26;;;;;;;3.50;3.20;;;;;;;;;;4992873;28;20782;-76
2022/09/20 01:53:06;;;;;;;5.30;3.53;;;;;;;;;;4992387;28;20849;-76
2022/09/20 01:55:45;;;;;;;4.87;3.60;;;;;;;;;;4992361;28;20467;-75
2022/09/20 01:58:27;;;;;;;9.87;3.33;;;;;;;;;;4991949;28;21023;-75
2022/09/20 02:00:59;;;;;;;4.63;3.47;;;;;;;;;;4992527;28;20562;-74
2022/09/20 02:03:42;;;;;;;6.30;3.40;;;;;;;;;;4992233;28;20472;-76
2022/09/20 02:06:23;;;;;;;5.33;3.50;;;;;;;;;;4992482;28;20416;-75
2022/09/20 02:09:13;;;;;;;6.40;3.57;;;;;;;;;;4991660;28;20472;-75
2022/09/20 02:11:51;;;;;;;4.27;2.83;;;;;;;;;;4977628;28;20507;-75
2022/09/20 02:14:30;;;;;;;3.83;3.40;;;;;;;;;;4993290;28;20876;-75
2022/09/20 02:16:58;;;;;;;5.90;3.37;;;;;;;;;;4993439;28;20594;-74
2022/09/20 02:19:32;;;;;;;4.63;2.93;;;;;;;;;;4993219;28;20464;-75
2022/09/20 02:22:10;;;;;;;7.10;3.30;;;;;;;;;;4994209;28;20427;-75
2022/09/20 02:24:41;;;;;;;6.63;3.70;;;;;;;;;;4992550;28;20456;-76
2022/09/20 02:27:14;;;;;;;3.57;3.00;;;;;;;;;;4993867;28;20427;-76
2022/09/20 02:29:47;;;;;;;3.10;2.90;;;;;;;;;;4995587;28;20464;-75
2022/09/20 02:32:22;;;;;;;5.83;3.67;;;;;;;;;;4994498;28;20435;-75
2022/09/20 02:35:05;;;;;;;3.60;3.20;;;;;;;;;;4992783;28;20435;-75
2022/09/20 02:37:40;;;;;;;4.20;3.30;;;;;;;;;;4960918;28;20444;-76
2022/09/20 02:40:15;;;;;;;3.30;2.50;;;;;;;;;;4991960;28;20435;-76
2022/09/20 02:42:44;;;;;;;4.13;3.07;;;;;;;;;;4991733;28;20539;-76
2022/09/20 02:45:19;;;;;;;4.70;3.50;;;;;;;;;;4991634;28;20501;-76
2022/09/20 02:47:48;;;;;;;2.73;2.50;;;;;;;;;;4991916;28;20486;-76
2022/09/20 02:50:25;;;;;;;3.60;3.30;;;;;;;;;;4991266;28;20456;-76
2022/09/20 02:52:59;;;;;;;6.20;2.80;;;;;;;;;;4991406;28;20439;-76
2022/09/20 02:55:29;;;;;;;3.93;3.50;;;;;;;;;;4991293;28;20944;-76
2022/09/20 02:58:01;;;;;;;5.83;2.90;;;;;;;;;;4991104;28;20565;-76
2022/09/20 03:00:33;;;;;;;3.50;2.70;;;;;;;;;;4991404;28;20432;-76
2022/09/20 03:03:04;;;;;;;3.27;3.07;;;;;;;;;;4990996;28;20522;-76
2022/09/20 03:05:34;;;;;;;3.10;2.83;;;;;;;;;;4991312;28;20495;-76
2022/09/20 03:08:09;;;;;;;4.23;2.97;;;;;;;;;;4991284;28;20530;-77
2022/09/20 03:10:39;;;;;;;3.37;3.07;;;;;;;;;;4991462;28;20431;-76
2022/09/20 03:13:16;;;;;;;5.60;2.90;;;;;;;;;;4991100;28;20436;-76
2022/09/20 03:15:53;;;;;;;3.10;2.90;;;;;;;;;;4991486;28;20443;-76
2022/09/20 03:18:23;;;;;;;3.23;3.03;;;;;;;;;;4991200;28;20456;-75
2022/09/20 03:20:58;;;;;;;3.33;2.67;;;;;;;;;;4990558;28;20854;-75
2022/09/20 03:23:36;;;;;;;3.57;2.80;;;;;;;;;;4994248;28;20471;-76
2022/09/20 03:26:08;;;;;;;3.77;2.83;;;;;;;;;;4994532;28;20446;-76
2022/09/20 03:28:50;;;;;;;5.77;3.00;;;;;;;;;;4994357;28;20474;-75
2022/09/20 03:31:24;;;;;;;4.90;3.70;;;;;;;;;;4991408;28;20459;-76
2022/09/20 03:33:58;;;;;;;7.43;3.63;;;;;;;;;;4990984;28;20453;-75
2022/09/20 03:36:49;;;;;;;3.53;3.23;;;;;;;;;;4991207;28;20939;-75
2022/09/20 03:39:25;;;;;;;3.43;3.13;;;;;;;;;;4976200;28;20480;-76
2022/09/20 03:42:00;;;;;;;5.23;2.90;;;;;;;;;;4991579;28;20436;-76
2022/09/20 03:44:38;;;;;;;4.33;3.10;;;;;;;;;;4991235;28;20475;-76
2022/09/20 03:47:12;;;;;;;2.90;2.70;;;;;;;;;;4991078;28;20510;-77
2022/09/20 03:49:50;;;;;;;4.27;3.17;;;;;;;;;;4992253;28;20477;-75
2022/09/20 03:52:25;;;;;;;5.17;3.30;;;;;;;;;;4993353;28;20452;-75
2022/09/20 03:55:05;;;;;;;3.23;2.93;;;;;;;;;;4991592;28;20447;-76
2022/09/20 03:57:39;;;;;;;7.17;3.33;;;;;;;;;;4991297;28;20524;-75
2022/09/20 04:00:10;;;;;;;5.60;2.80;;;;;;;;;;4991548;28;20444;-75
2022/09/20 04:02:44;;;;;;;3.33;3.03;;;;;;;;;;4990696;28;20485;-75
2022/09/20 04:05:13;;;;;;;4.80;3.13;;;;;;;;;;5012651;28;20443;-75
2022/09/20 04:07:44;;;;;;;3.80;2.80;;;;;;;;;;4973945;28;20441;-76
2022/09/20 04:10:24;;;;;;;3.87;2.80;;;;;;;;;;4987472;28;20432;-77
2022/09/20 04:13:00;;;;;;;3.87;3.40;;;;;;;;;;4992941;28;20448;-75
2022/09/20 04:15:31;;;;;;;3.47;3.27;;;;;;;;;;4993778;28;20468;-75
2022/09/20 04:18:04;;;;;;;4.67;3.60;;;;;;;;;;4990559;28;20479;-76
2022/09/20 04:20:37;;;;;;;5.93;3.40;;;;;;;;;;4990648;28;21206;-75
2022/09/20 04:23:09;;;;;;;3.47;3.00;;;;;;;;;;4990628;28;20674;-75
2022/09/20 04:25:38;;;;;;;3.40;3.10;;;;;;;;;;4991091;28;20799;-76
2022/09/20 04:28:09;;;;;;;4.93;3.40;;;;;;;;;;4990791;28;20467;-76
2022/09/20 04:30:42;;;;;;;3.70;3.40;;;;;;;;;;4990922;28;20461;-75
2022/09/20 04:33:15;;;;;;;6.40;4.53;;;;;;;;;;4993240;28;20432;-76
2022/09/20 04:38:30;;;;;;;3.10;2.90;;;;;;;;;;4994114;28;20439;-76
2022/09/20 04:41:08;;;;;;;2.90;2.63;;;;;;;;;;4993807;28;20461;-76
2022/09/20 04:43:52;;;;;;;2.63;2.40;;;;;;;;;;4993441;28;20994;-75
2022/09/20 04:46:43;;;;;;;3.70;3.17;;;;;;;;;;4993984;28;20822;-76
2022/09/20 04:49:29;;;;;;;3.90;3.20;;;;;;;;;;4939057;28;20469;-75
2022/09/20 04:52:18;;;;;;;4.60;2.73;;;;;;;;;;4994217;28;20538;-76
2022/09/20 04:54:59;;;;;;;5.10;3.47;;;;;;;;;;4993833;28;20465;-75
2022/09/20 04:57:45;;;;;;;4.37;3.50;;;;;;;;;;4994036;28;20444;-76
2022/09/20 05:00:14;;;;;;;9.30;3.80;;;;;;;;;;4994151;28;20448;-76
2022/09/20 05:02:54;;;;;;;6.03;3.40;;;;;;;;;;4993674;28;20854;-76
2022/09/20 05:05:55;;;;;;;5.33;3.87;;;;;;;;;;4994180;28;20432;-76
2022/09/20 05:08:55;;;;;;;6.17;3.20;;;;;;;;;;4932847;29;20517;-76
2022/09/20 05:11:44;;;;;;;6.20;3.80;;;;;;;;;;4932918;29;20458;-77
2022/09/20 05:14:25;;;;;;;4.70;3.63;;;;;;;;;;4982526;28;20448;-76
2022/09/20 05:17:01;;;;;;;6.73;4.00;;;;;;;;;;4993477;28;20432;-76
2022/09/20 05:19:33;;;;;;;6.90;4.00;;;;;;;;;;4993611;28;20491;-76
2022/09/20 05:22:06;;;;;;;5.57;3.87;;;;;;;;;;4993586;28;20444;-76
2022/09/20 05:24:44;;;;;;;7.37;3.67;;;;;;;;;;4992634;28;20484;-75
2022/09/20 05:27:21;;;;;;;7.73;4.60;;;;;;;;;;4993352;28;20809;-75
2022/09/20 05:29:51;;;;;;;4.20;3.90;;;;;;;;;;4993141;28;20526;-75
2022/09/20 05:32:21;;;;;;;9.23;4.27;;;;;;;;;;4993039;28;20527;-76
2022/09/20 05:34:52;;;;;;;7.80;5.10;;;;;;;;;;4992878;28;20448;-76
2022/09/20 05:37:26;;;;;;;8.60;5.00;;;;;;;;;;4993289;28;20440;-76
2022/09/20 05:39:55;;;;;;;12.30;4.50;;;;;;;;;;4993256;28;20774;-76
2022/09/20 05:42:27;;;;;;;11.07;5.40;;;;;;;;;;4993178;28;20502;-75
2022/09/20 05:44:56;;;;;;;4.20;3.80;;;;;;;;;;4992031;28;20480;-75
2022/09/20 05:47:28;;;;;;;17.53;4.40;;;;;;;;;;4993259;28;20522;-75
2022/09/20 05:49:59;;;;;;;8.50;4.20;;;;;;;;;;4993583;28;20530;-76
2022/09/20 05:52:31;;;;;;;5.27;3.80;;;;;;;;;;4992850;28;21056;-75
2022/09/20 05:55:16;;;;;;;6.80;4.53;;;;;;;;;;4993037;28;20460;-76
2022/09/20 05:57:51;;;;;;;7.47;4.13;;;;;;;;;;4992602;28;20459;-75
2022/09/20 06:00:19;;;;;;;7.00;3.67;;;;;;;;;;4992599;28;20451;-75
2022/09/20 06:02:52;;;;;;;6.80;4.27;;;;;;;;;;4992282;28;21010;-76
2022/09/20 06:05:28;;;;;;;5.60;4.13;;;;;;;;;;4992905;28;20495;-77
2022/09/20 06:08:05;;;;;;;6.77;4.77;;;;;;;;;;4993371;28;20480;-76
2022/09/20 06:10:38;;;;;;;9.03;3.80;;;;;;;;;;4992836;28;20439;-76
2022/09/20 06:13:16;;;;;;;6.20;3.63;;;;;;;;;;4992688;28;20528;-76
2022/09/20 06:15:46;;;;;;;7.87;4.03;;;;;;;;;;4992758;28;20431;-77
2022/09/20 06:18:20;;;;;;;6.77;3.93;;;;;;;;;;4994888;28;21022;-75
2022/09/20 06:20:52;;;;;;;5.17;4.07;;;;;;;;;;4996170;28;20798;-76
2022/09/20 06:23:20;;;;;;;4.17;3.80;;;;;;;;;;4995627;28;20524;-76
2022/09/20 06:25:49;;;;;;;4.63;3.80;;;;;;;;;;4995287;28;20817;-76
2022/09/20 06:28:18;;;;;;;6.60;4.00;;;;;;;;;;4996046;28;20465;-75
2022/09/20 06:30:48;;;;;;;5.17;3.93;;;;;;;;;;4996637;28;20455;-77
2022/09/20 06:33:16;;;;;;;8.53;3.33;;;;;;;;;;4992880;28;20463;-75
2022/09/20 06:35:44;;;;;;;7.47;3.10;;;;;;;;;;4992158;28;20506;-76
2022/09/20 06:43:52;;;;;;;6.33;3.63;;;;;;;;;;4991548;28;20471;-76
2022/09/20 06:46:19;;;;;;;7.73;4.03;;;;;;;;;;4991580;28;20444;-76
2022/09/20 06:48:48;;;;;;;5.63;3.27;;;;;;;;;;4991674;28;20818;-77
2022/09/20 06:51:15;;;;;;;6.80;3.97;;;;;;;;;;4991917;28;20460;-76
2022/09/20 06:53:42;;;;;;;6.27;3.70;;;;;;;;;;4992814;28;20452;-76
2022/09/20 06:56:13;;;;;;;8.17;3.70;;;;;;;;;;4992607;28;20453;-75
2022/09/20 06:58:40;;;;;;;6.43;4.40;;;;;;;;;;4991708;28;20810;-76
2022/09/20 07:01:08;;;;;;;10.67;4.37;;;;;;;;;;4991783;28;20456;-75
2022/09/20 07:03:38;;;;;;;4.83;3.53;;;;;;;;;;4991797;28;20494;-76
2022/09/20 07:06:05;;;;;;;8.90;3.40;;;;;;;;;;4991628;28;20839;-76
2022/09/20 07:08:32;;;;;;;4.47;4.00;;;;;;;;;;4991812;28;20947;-76
2022/09/20 07:11:03;;;;;;;9.43;3.43;;;;;;;;;;4991852;28;20448;-76
2022/09/20 07:13:30;;;;;;;8.50;3.80;;;;;;;;;;4992142;28;20421;-77
2022/09/20 07:16:00;;;;;;;8.10;4.33;;;;;;;;;;4991947;28;20444;-76
2022/09/20 07:18:29;;;;;;;5.23;3.40;;;;;;;;;;4991428;28;20508;-75
2022/09/20 07:20:57;;;;;;;6.40;4.30;;;;;;;;;;4991899;28;20447;-75
2022/09/20 07:23:24;;;;;;;6.93;3.97;;;;;;;;;;4991934;28;20435;-76
2022/09/20 07:25:51;;;;;;;9.40;4.80;;;;;;;;;;4986499;28;20979;-76
2022/09/20 07:28:19;;;;;;;9.80;5.40;;;;;;;;;;4971734;28;20776;-75
2022/09/20 07:30:46;;;;;;;6.87;5.10;;;;;;;;;;4972472;28;20800;-76
2022/09/20 07:33:18;;;;;;;6.20;3.97;;;;;;;;;;4972336;28;20489;-75
2022/09/20 07:35:46;;;;;;;7.70;4.67;;;;;;;;;;4972396;28;20453;-76
2022/09/20 07:38:14;;;;;;;7.30;5.03;;;;;;;;;;4972603;28;21262;-76
2022/09/20 07:40:41;;;;;;;6.67;3.93;;;;;;;;;;4972342;28;20556;-76
2022/09/20 07:43:08;;;;;;;6.13;3.83;;;;;;;;;;4971723;28;20969;-75
2022/09/20 07:45:38;;;;;;;11.03;3.90;;;;;;;;;;4973889;28;20728;-76
2022/09/20 07:48:06;;;;;;;8.77;4.30;;;;;;;;;;4975117;28;20564;-75
2022/09/20 07:50:33;;;;;;;7.13;4.40;;;;;;;;;;4972736;28;20507;-75
2022/09/20 07:53:03;;;;;;;11.07;3.17;;;;;;;;;;4972767;28;20460;-76
2022/09/20 07:55:30;;;;;;;6.00;3.70;;;;;;;;;;4972238;28;20461;-76
2022/09/20 07:57:57;;;;;;;7.00;3.17;;;;;;;;;;4972412;28;20465;-76
2022/09/20 08:00:25;;;;;;;7.33;3.13;;;;;;;;;;4972331;28;20445;-75
2022/09/20 08:02:58;;;;;;;6.70;3.07;;;;;;;;;;4972291;28;20459;-75
2022/09/20 08:05:26;;;;;;;5.30;2.80;;;;;;;;;;4972423;28;20577;-76
2022/09/20 08:07:53;;;;;;;4.90;3.20;;;;;;;;;;4976163;28;20592;-75
2022/09/20 08:10:21;;;;;;;5.53;3.43;;;;;;;;;;4977938;28;20520;-75
2022/09/20 08:12:49;;;;;;;5.83;2.83;;;;;;;;;;4996884;28;20480;-75
2022/09/20 08:15:16;;;;;;;6.13;3.07;;;;;;;;;;4998663;28;20460;-76
2022/09/20 08:17:43;;;;;;;5.60;2.73;;;;;;;;;;4999174;28;20475;-76
2022/09/20 08:20:10;;;;;;;6.87;2.97;;;;;;;;;;4995233;28;20462;-76
2022/09/20 08:22:40;;;;;;;7.93;3.57;;;;;;;;;;4994501;28;20444;-76
2022/09/20 08:25:08;;;;;;;6.20;2.97;;;;;;;;;;4994280;28;20655;-76
2022/09/20 08:27:36;;;;;;;4.97;3.20;;;;;;;;;;4994236;28;20470;-76
2022/09/20 08:30:05;;;;;;;6.13;2.80;;;;;;;;;;4994861;28;20506;-76
2022/09/20 08:32:32;;;;;;;5.33;3.10;;;;;;;;;;4994704;28;20495;-75
2022/09/20 08:34:59;;;;;;;3.93;2.90;;;;;;;;;;4994489;28;21185;-76
2022/09/20 08:37:26;;;;;;;6.47;4.40;;;;;;;;;;4994578;28;20448;-75
2022/09/20 08:39:53;;;;;;;3.83;2.87;;;;;;;;;;4994742;28;20451;-76
2022/09/20 08:42:26;;;;;;;5.50;2.43;;;;;;;;;;4994450;28;20448;-76
2022/09/20 08:44:56;;;;;;;5.40;2.67;;;;;;;;;;4994648;28;20472;-76
2022/09/20 08:47:25;;;;;;;6.03;2.90;;;;;;;;;;4995917;28;20488;-75
2022/09/20 08:49:53;;;;;;;6.63;2.30;;;;;;;;;;4997851;28;20830;-76
2022/09/20 08:52:23;;;;;;;4.50;2.73;;;;;;;;;;4999463;28;20452;-76
2022/09/20 08:54:50;;;;;;;7.80;2.90;;;;;;;;;;4996232;28;20479;-76
2022/09/20 08:57:18;;;;;;;5.77;2.70;;;;;;;;;;4994372;28;20429;-76
2022/09/20 08:59:46;;;;;;;7.37;2.53;;;;;;;;;;4994407;28;20852;-76
2022/09/20 09:02:17;;;;;;;8.53;2.40;;;;;;;;;;4994385;28;20452;-76
2022/09/20 09:04:45;;;;;;;4.90;2.10;;;;;;;;;;4994307;28;20471;-76
2022/09/20 09:07:13;;;;;;;3.90;2.60;;;;;;;;;;4994221;28;20444;-75
2022/09/20 09:09:42;;;;;;;4.80;2.30;;;;;;;;;;4993109;28;20464;-76
2022/09/20 09:12:15;;;;;;;5.97;2.13;;;;;;;;;;4993559;28;20504;-76
2022/09/20 09:14:50;;;;;;;4.93;2.07;;;;;;;;;;4993900;28;20425;-76
2022/09/20 09:17:19;;;;;;;4.53;1.83;;;;;;;;;;4993574;28;20441;-76
2022/09/20 09:19:48;;;;;;;4.50;1.93;;;;;;;;;;4992204;28;20468;-76
2022/09/20 09:22:19;;;;;;;5.70;2.27;;;;;;;;;;4992979;28;20452;-76
2022/09/20 09:24:46;;;;;;;6.83;2.43;;;;;;;;;;4993348;28;20471;-76
2022/09/20 09:27:15;;;;;;;5.30;1.90;;;;;;;;;;4993646;28;20811;-76
2022/09/20 09:29:50;;;;;;;6.00;2.60;;;;;;;;;;4993642;28;20473;-75
2022/09/20 09:32:23;;;;;;;8.20;2.60;;;;;;;;;;4997433;28;20440;-77
2022/09/20 09:34:50;;;;;;;3.00;2.40;;;;;;;;;;4992820;28;20472;-76
2022/09/20 09:37:25;;;;;;;6.77;2.70;;;;;;;;;;4994483;28;20522;-76
2022/09/20 09:40:09;;;;;;;5.10;2.70;;;;;;;;;;4980886;28;20469;-77
2022/09/20 09:42:37;;;;;;;2.23;2.03;;;;;;;;;;4994515;28;20445;-76
2022/09/20 09:45:13;;;;;;;6.37;2.80;;;;;;;;;;5003264;28;20508;-75
2022/09/20 09:47:42;;;;;;;5.30;2.10;;;;;;;;;;4998773;28;20516;-77
2022/09/20 09:50:21;;;;;;;5.80;2.77;;;;;;;;;;5005257;28;20448;-76
2022/09/20 09:52:58;;;;;;;4.50;1.80;;;;;;;;;;5000197;28;20409;-75
2022/09/20 09:55:26;;;;;;;2.97;1.90;;;;;;;;;;4998662;28;20556;-75
2022/09/20 09:57:58;;;;;;;3.50;1.97;;;;;;;;;;4996365;28;20476;-76
2022/09/20 10:00:26;;;;;;;6.20;2.10;;;;;;;;;;4994314;28;20424;-76
2022/09/20 10:03:10;;;;;;;3.10;1.87;;;;;;;;;;4993923;28;20464;-76
2022/09/20 10:05:42;;;;;;;2.50;2.23;;;;;;;;;;4993768;28;21016;-76
2022/09/20 10:08:18;;;;;;;4.57;2.27;;;;;;;;;;4996269;28;20476;-77
2022/09/20 10:10:56;;;;;;;5.33;3.03;;;;;;;;;;4998010;28;21088;-75
2022/09/20 10:13:28;;;;;;;6.60;2.30;;;;;;;;;;5007705;28;20429;-75
2022/09/20 10:15:56;;;;;;;5.33;1.80;;;;;;;;;;5006594;28;20425;-76
2022/09/20 10:18:32;;;;;;;5.17;2.07;;;;;;;;;;4995830;28;20472;-76
2022/09/20 10:21:08;;;;;;;4.60;2.20;;;;;;;;;;4996958;28;20524;-76
2022/09/20 10:23:41;;;;;;;4.73;1.90;;;;;;;;;;4992974;28;20428;-76
2022/09/20 10:26:13;;;;;;;6.80;2.20;;;;;;;;;;4991961;28;20488;-75
2022/09/20 10:28:49;;;;;;;6.70;2.40;;;;;;;;;;4992182;28;20552;-75
2022/09/20 10:31:21;;;;;;;4.37;1.90;;;;;;;;;;4992184;28;20519;-75
2022/09/20 10:33:53;;;;;;;6.90;1.97;;;;;;;;;;4992141;28;20453;-76
2022/09/20 10:36:24;;;;;;;5.13;2.20;;;;;;;;;;4992656;28;20485;-76
2022/09/20 10:38:55;;;;;;;5.67;2.03;;;;;;;;;;4992946;28;20556;-76
2022/09/20 10:44:13;;;;;;;8.47;2.17;;;;;;;;;;4969575;28;20428;-76
2022/09/20 10:46:51;;;;;;;4.33;1.80;;;;;;;;;;4992630;28;20509;-76
2022/09/20 10:49:26;;;;;;;4.27;1.67;;;;;;;;;;4992529;28;20460;-76
2022/09/20 10:52:00;;;;;;;6.07;2.33;;;;;;;;;;4992285;28;20911;-76
2022/09/20 10:54:37;;;;;;;4.10;2.03;;;;;;;;;;4992129;28;20467;-77
2022/09/20 10:57:11;;;;;;;4.60;2.03;;;;;;;;;;4992603;28;21059;-76
2022/09/20 10:59:47;;;;;;;3.77;2.10;;;;;;;;;;4992406;28;20975;-77
2022/09/20 11:02:17;;;;;;;2.53;1.90;;;;;;;;;;4991800;28;20936;-76
2022/09/20 11:04:57;;;;;;;5.57;2.07;;;;;;;;;;4992376;28;20436;-76
2022/09/20 11:07:29;;;;;;;5.27;1.93;;;;;;;;;;4992267;28;20444;-77
2022/09/20 11:10:00;;;;;;;3.57;2.33;;;;;;;;;;4992467;28;21007;-76
2022/09/20 11:12:31;;;;;;;3.93;1.90;;;;;;;;;;4991673;28;20448;-76
2022/09/20 11:15:01;;;;;;;5.40;1.73;;;;;;;;;;4991171;28;20447;-76
2022/09/20 11:17:31;;;;;;;3.43;1.80;;;;;;;;;;4991698;28;20424;-76
2022/09/20 11:20:01;;;;;;;2.30;1.77;;;;;;;;;;4992194;28;20476;-75
2022/09/20 11:22:31;;;;;;;2.97;1.53;;;;;;;;;;4993194;28;20435;-74
2022/09/20 11:25:02;;;;;;;10.77;2.73;;;;;;;;;;4992427;28;20487;-75
2022/09/20 11:27:31;;;;;;;3.00;1.60;;;;;;;;;;4990922;28;20552;-77
2022/09/20 11:30:01;;;;;;;3.13;1.67;;;;;;;;;;4990597;28;20452;-76
2022/09/20 11:32:33;;;;;;;1.80;1.50;;;;;;;;;;4990409;28;20456;-76
2022/09/20 11:35:03;;;;;;;4.70;1.70;;;;;;;;;;4990409;28;20510;-75
2022/09/20 11:37:33;;;;;;;3.73;1.70;;;;;;;;;;4989913;28;20453;-76
2022/09/20 11:40:01;;;;;;;4.30;1.57;;;;;;;;;;4990143;28;20838;-76
2022/09/20 11:42:29;;;;;;;4.33;1.77;;;;;;;;;;4989774;28;20444;-76
2022/09/20 11:44:56;;;;;;;5.20;2.10;;;;;;;;;;4990814;28;20455;-75
2022/09/20 11:47:25;;;;;;;1.43;1.33;;;;;;;;;;4991209;28;20452;-77
2022/09/20 11:50:02;;;;;;;4.13;1.63;;;;;;;;;;4985199;28;21030;-76
2022/09/20 11:52:56;;;;;;;5.73;1.90;;;;;;;;;;4990285;28;20455;-77
2022/09/20 11:55:28;;;;;;;3.50;2.00;;;;;;;;;;4990063;28;20472;-75
2022/09/20 11:58:02;;;;;;;3.93;1.73;;;;;;;;;;4989681;28;20838;-75
2022/09/20 12:00:31;;;;;;;2.90;1.50;;;;;;;;;;4990035;28;21013;-76
2022/09/20 12:02:58;;;;;;;4.83;1.77;;;;;;;;;;4986179;28;20548;-76
2022/09/20 12:05:28;;;;;;;5.90;2.47;;;;;;;;;;4987571;28;20867;-78
2022/09/20 12:07:57;;;;;;;3.60;1.50;;;;;;;;;;4989511;28;20460;-76
2022/09/20 12:10:25;;;;;;;4.57;1.50;;;;;;;;;;4989564;28;20449;-78
2022/09/20 12:12:56;;;;;;;4.97;1.83;;;;;;;;;;4989406;28;20780;-76
2022/09/20 12:15:25;;;;;;;2.13;1.10;;;;;;;;;;4989667;28;20444;-76
2022/09/20 12:18:14;;;;;;;2.40;1.50;;;;;;;;;;4989641;28;20476;-76
2022/09/20 12:21:11;;;;;;;2.00;1.50;;;;;;;;;;4989874;28;20443;-76
2022/09/20 12:24:02;;;;;;;2.37;1.13;;;;;;;;;;4989411;28;20948;-75
2022/09/20 12:26:39;;;;;;;2.87;1.40;;;;;;;;;;4990313;28;20833;-75
2022/09/20 12:29:31;;;;;;;3.23;1.40;;;;;;;;;;4989228;28;21157;-76
2022/09/20 12:32:01;;;;;;;2.40;1.30;;;;;;;;;;4989550;28;20456;-77
2022/09/20 12:34:33;;;;;;;2.80;1.50;;;;;;;;;;4989846;28;20452;-75
2022/09/20 12:37:23;;;;;;;3.93;1.40;;;;;;;;;;4989574;28;20523;-76
2022/09/20 12:39:54;;;;;;;6.77;1.40;;;;;;;;;;4988954;28;20472;-76
2022/09/20 12:42:28;;;;;;;1.57;1.40;;;;;;;;;;4988802;28;20464;-75
2022/09/20 12:44:59;;;;;;;1.67;1.53;;;;;;;;;;4989378;28;20569;-76
2022/09/20 12:47:29;;;;;;;3.33;1.70;;;;;;;;;;4988955;28;20484;-77
2022/09/20 12:52:59;;;;;;;2.30;1.63;;;;;;;;;;4989350;28;20416;-77
2022/09/20 12:55:29;;;;;;;2.40;1.53;;;;;;;;;;4992513;28;20902;-76
2022/09/20 12:57:57;;;;;;;3.77;1.63;;;;;;;;;;4993836;28;20474;-76
2022/09/20 13:00:37;;;;;;;4.77;1.40;;;;;;;;;;4994354;28;20498;-77
2022/09/20 13:03:13;;;;;;;6.43;1.27;;;;;;;;;;4991913;28;20490;-75
2022/09/20 13:05:40;;;;;;;2.43;1.10;;;;;;;;;;4991981;28;20488;-77
2022/09/20 13:08:13;;;;;;;3.70;1.50;;;;;;;;;;4991947;28;20521;-77
2022/09/20 13:10:42;;;;;;;4.37;1.50;;;;;;;;;;4992310;28;20499;-77
2022/09/20 13:13:16;;;;;;;4.90;1.43;;;;;;;;;;4994487;28;20452;-76
2022/09/20 13:15:49;;;;;;;4.50;1.67;;;;;;;;;;4998188;28;20514;-76
2022/09/20 13:18:18;;;;;;;2.37;1.60;;;;;;;;;;4994084;28;20590;-77
2022/09/20 13:20:45;;;;;;;4.03;1.50;;;;;;;;;;4999546;28;20468;-75
2022/09/20 13:23:19;;;;;;;2.87;1.33;;;;;;;;;;4999325;28;20444;-76
2022/09/20 13:25:46;;;;;;;2.60;1.43;;;;;;;;;;4992208;28;20478;-78
2022/09/20 13:28:24;;;;;;;6.07;1.93;;;;;;;;;;4992286;28;21230;-75
2022/09/20 13:31:11;;;;;;;2.67;1.33;;;;;;;;;;4992337;28;20443;-76
2022/09/20 13:33:40;;;;;;;2.53;1.60;;;;;;;;;;4991338;28;20448;-76
2022/09/20 13:36:07;;;;;;;2.43;1.47;;;;;;;;;;4991865;28;20428;-76
2022/09/20 13:38:37;;;;;;;3.40;1.40;;;;;;;;;;4991953;28;20519;-76
2022/09/20 13:41:08;;;;;;;1.97;1.40;;;;;;;;;;4991887;28;20436;-77
2022/09/20 13:43:38;;;;;;;2.00;1.50;;;;;;;;;;4991915;28;20476;-77
2022/09/20 13:46:08;;;;;;;2.13;1.60;;;;;;;;;;4991777;28;20484;-77
2022/09/20 13:48:35;;;;;;;2.87;1.57;;;;;;;;;;4992120;28;20476;-76
2022/09/20 13:51:04;;;;;;;4.40;1.70;;;;;;;;;;4992333;28;20456;-76
2022/09/20 13:53:31;;;;;;;2.43;1.80;;;;;;;;;;4991823;28;20499;-80
2022/09/20 13:55:59;;;;;;;3.20;1.63;;;;;;;;;;4991681;28;20452;-76
2022/09/20 13:58:27;;;;;;;5.93;2.40;;;;;;;;;;4991452;28;21018;-76
2022/09/20 14:00:55;;;;;;;5.10;2.27;;;;;;;;;;4991549;28;20444;-76
2022/09/20 14:03:23;;;;;;;2.07;1.60;;;;;;;;;;4991063;28;20777;-76
2022/09/20 14:05:51;;;;;;;3.30;1.93;;;;;;;;;;4990950;28;20452;-76
2022/09/20 14:08:22;;;;;;;2.40;1.80;;;;;;;;;;4991575;28;20555;-76
2022/09/20 14:10:50;;;;;;;2.43;2.23;;;;;;;;;;4991106;28;20898;-76
2022/09/20 14:13:17;;;;;;;3.97;2.00;;;;;;;;;;4990876;28;20452;-76
2022/09/20 14:15:46;;;;;;;2.20;1.97;;;;;;;;;;4991296;28;20471;-77
2022/09/20 14:18:14;;;;;;;6.60;2.10;;;;;;;;;;4990937;28;20468;-76
2022/09/20 14:20:43;;;;;;;4.67;2.17;;;;;;;;;;4990982;28;21182;-78
2022/09/20 14:23:20;;;;;;;6.87;2.57;;;;;;;;;;4991185;28;20510;-76
2022/09/20 14:26:02;;;;;;;4.23;2.33;;;;;;;;;;4991640;28;20451;-77
2022/09/20 14:28:30;;;;;;;2.80;1.77;;;;;;;;;;4983887;28;20483;-78
2022/09/20 14:31:06;;;;;;;4.20;1.80;;;;;;;;;;4990805;28;20493;-76
2022/09/20 14:33:33;;;;;;;3.57;1.77;;;;;;;;;;4991289;28;20524;-77
2022/09/20 14:36:00;;;;;;;2.47;1.80;;;;;;;;;;4991077;28;20452;-77
2022/09/20 14:38:27;;;;;;;3.10;2.00;;;;;;;;;;4991171;28;20467;-77
2022/09/20 14:40:55;;;;;;;3.33;2.20;;;;;;;;;;4990662;28;20964;-77
2022/09/20 14:43:27;;;;;;;3.43;2.30;;;;;;;;;;4990763;28;20456;-77
2022/09/20 14:45:57;;;;;;;3.00;2.23;;;;;;;;;;4990511;28;20453;-76
2022/09/20 14:48:32;;;;;;;3.77;2.07;;;;;;;;;;4990496;28;20472;-77
2022/09/20 14:51:10;;;;;;;2.53;2.03;;;;;;;;;;4990217;28;20515;-77
2022/09/20 14:53:37;;;;;;;2.33;2.10;;;;;;;;;;4990312;28;20463;-78
2022/09/20 14:56:09;;;;;;;1.87;1.77;;;;;;;;;;4990153;28;20459;-75
2022/09/20 14:58:51;;;;;;;2.50;2.20;;;;;;;;;;4989761;28;20555;-75
2022/09/20 15:01:23;;;;;;;3.30;2.37;;;;;;;;;;4989763;28;20451;-76
2022/09/20 15:03:50;;;;;;;2.50;2.30;;;;;;;;;;4989701;28;20452;-76
2022/09/20 15:06:18;;;;;;;1.80;1.70;;;;;;;;;;4990135;28;20492;-77
2022/09/20 15:08:45;;;;;;;3.47;2.03;;;;;;;;;;4990137;28;20476;-75
2022/09/20 15:11:13;;;;;;;2.70;2.23;;;;;;;;;;4990001;28;20440;-76
2022/09/20 15:13:40;;;;;;;2.20;2.00;;;;;;;;;;4989818;28;20482;-77
2022/09/20 15:16:07;;;;;;;3.10;2.20;;;;;;;;;;4989094;28;20771;-76
2022/09/20 15:18:38;;;;;;;2.40;1.63;;;;;;;;;;4990035;28;20469;-75
2022/09/20 15:21:05;;;;;;;3.83;1.90;;;;;;;;;;4990303;28;20874;-76
2022/09/20 15:23:32;;;;;;;1.40;1.30;;;;;;;;;;4989903;28;20484;-75
2022/09/20 15:25:59;;;;;;;1.30;1.20;;;;;;;;;;4990256;28;20444;-76